LOWILIRQ

Guest
Details From LOWI - Innsbruck Kranebitten
To LIRQ - Firenze
Flight Number -
Tags decoded
Created
Modified
Stats Distance 209 nm / 386 km
Max Altitude 0 ft / 0 m
Waypoints 5
Social Downloads 0
Likes 0
Share VATSIM

Download

Looking for another format? Having issues loading an existing format? Contact us
Advertisement - Login to hide

Notes

Requested: LOWI EKPIS NAXAV SUMIR VADIK ALBET LUMAV BOA MAREL LIRQ Unmatched points: EKPIS NAXAV LUMAV

Route

LOWI SUMIR ALBET BOA LIRQ

ID Type Via Altitude Latitude Longitude Leg Dist Tot Dist Heading (true) Name
O LOWI APT - 0 ft / 0 m 47.26023˚ 11.34397˚ - 0 nm - Innsbruck Kranebitten
SUMIR FIX - 0 ft / 0 m 46.25889˚ 11.35972˚ 60 nm 60 nm 179° / 179° -
ALBET FIX - 0 ft / 0 m 45.42667˚ 11.50917˚ 50 nm 110 nm 173° / 173° -
BOA VOR - 0 ft / 0 m 44.53694˚ 11.29055˚ 54 nm 164 nm 190° / 190° BOLOGNA VOR-DME
O LIRQ APT - 0 ft / 0 m 43.80998˚ 11.20512˚ 43 nm 208 nm 185° / 185° Firenze

Altitude Profile

Advertisement - Login to hide

Weather


0- 5 10 15 20 25 30 35+ Temperature / ° C

Clouds and Precipitation
Forecast for 2018-06-24 12:00 UTC. Updated 5 hours ago

Ground ~20,000 ft ~40,000 ft Winds

LOWI

Details ICAO LOWI (INN)
Name Innsbruck Kranebitten
Region Austria
Timezone Europe/Vienna (UTC+2.0)
Stats Elevation 1,906 ft / 581 m (AMSL)
Location 47.260226° 11.343967°
Runways 1
Magnetic Variation 3.082° E

METAR

LOWI 241350Z 10004KT 060V130 9999 FEW050 SCT075 BKN300 21/08 Q1018 NOSIG

Decode

TAF

TAF LOWI 241115Z 2412/2512 08006KT 9999 SCT060 BKN090 TX21/2413Z TN12/2503Z TEMPO 2414/2424 31015G25KT SHRA SCT040TCU BKN070 TEMPO 2500/2508 30008KT RA SCT020 BKN040

Decode

Departure Runways

ID Width Length Bearing (true) Bearing (mag) Surface Threshold Offset Overrun Length
08 148 ft / 45 m 6,545 ft / 1,995 m 81.02° 77.94° Asphalt 338 ft / 103 m 0 ft / 0 m
26 148 ft / 45 m 6,545 ft / 1,995 m 261.04° 257.96° Asphalt 0 ft / 0 m 0 ft / 0 m

LIRQ

Details ICAO LIRQ (FLR)
Name Firenze
Region Italy
Timezone Europe/Rome (UTC+2.0)
Stats Elevation 142 ft / 43 m (AMSL)
Location 43.809984° 11.205118°
Runways 1
Magnetic Variation 2.933° E

METAR

LIRQ 241350Z 21004KT 150V300 9999 FEW040 29/08 Q1015

Decode

TAF

TAF LIRQ 241100Z 2412/2512 22010KT CAVOK BECMG 2416/2418 VRB05KT

Decode

Destination Runways

ID Width Length Bearing (true) Bearing (mag) Surface Threshold Offset Overrun Length
05 98 ft / 30 m 5,420 ft / 1,652 m 48.52° 45.59° Asphalt 492 ft / 150 m 0 ft / 0 m
23 98 ft / 30 m 5,420 ft / 1,652 m 228.53° 225.60° Asphalt 2,287 ft / 697 m 0 ft / 0 m

Approach Navaids

Runway Type Ident Frequency Range Bearing (true) Bearing (mag) Slope Elevation
05 Localiser IFZ 110.30 MHz 18 nm / 33 km 48.10° 45.17° - 131 ft / 40 m (AMSL)
05 Glidescope IFZ 110.30 MHz 10 nm / 19 km 47.00° 44.07° 3.00° 144 ft / 44 m (AMSL)
05 DME IFZ 110.30 MHz 18 nm / 33 km - - - 144 ft / 44 m (AMSL)

Popular Alternatives